Gloucester, New Jersey
Current Conditions -  °F | °C
As of 2:54 PM on Friday 31 Oct 2014 (Local Time) from KPHL Reporting Station
Overcast Overcast  
Wind Chill: 53°   Ceiling: 4100
Heat Index: 53°   Visibility: 10mi
Dew Point: 36°   Wind: 9mph
Humidity: 52%   Direction: 10°N
Pressure: 29.91"   Gusts: NA
Location:  39.8669°N, 75.093°W
Report Text: KPHL 311854Z 01008KT 10SM FEW034 OVC041 12/02 A2991 RMK AO2 SLP126 T01170022 $
Loading
Personal Weather Stations






























Interactive Weather Map
Tropical Storm Tracking
New forecast layout! Learn more

10-Day Weather Forecast

Advertisements
Track Severe Weather on mobile